createdAt,value
2022-10-06T00:00:52.437Z,3.42
2022-10-06T00:04:16.737Z,3.47
2022-10-06T00:07:12.064Z,3.33
2022-10-06T00:10:18.880Z,3.60
2022-10-06T00:17:22.294Z,4.17
2022-10-06T00:20:35.389Z,4.18
2022-10-06T00:24:05.603Z,3.88
2022-10-06T00:26:52.911Z,3.95
2022-10-06T00:33:24.019Z,3.67
2022-10-06T00:40:09.028Z,2.60
2022-10-06T00:43:27.643Z,3.10
2022-10-06T00:50:33.028Z,2.85
2022-10-06T00:53:49.804Z,2.30
2022-10-06T01:03:49.765Z,2.50
2022-10-06T01:06:49.321Z,2.42
2022-10-06T01:10:01.773Z,2.35
2022-10-06T01:13:06.135Z,2.42
2022-10-06T01:20:20.665Z,2.50
2022-10-06T01:23:42.054Z,2.05
2022-10-06T01:26:31.008Z,2.40
2022-10-06T01:29:18.872Z,2.75
2022-10-06T01:32:09.417Z,2.67
2022-10-06T01:34:56.596Z,2.60
2022-10-06T01:37:43.940Z,2.30
2022-10-06T01:40:37.530Z,2.83
2022-10-06T01:43:24.861Z,2.72
2022-10-06T01:46:14.089Z,2.58
2022-10-06T01:49:04.409Z,2.90
2022-10-06T01:52:03.475Z,2.80
2022-10-06T01:54:50.963Z,3.15
2022-10-06T01:57:42.502Z,2.60
2022-10-06T02:00:29.704Z,2.88
2022-10-06T02:03:18.393Z,2.80
2022-10-06T02:06:10.726Z,2.60
2022-10-06T02:12:39.399Z,3.25
2022-10-06T02:15:37.265Z,2.63
2022-10-06T02:30:15.161Z,2.63
2022-10-06T02:33:14.831Z,3.00
2022-10-06T02:36:05.610Z,2.60
2022-10-06T02:42:11.641Z,2.50
2022-10-06T02:44:59.696Z,3.15
2022-10-06T02:48:13.304Z,2.67
2022-10-06T02:55:16.756Z,2.60
2022-10-06T02:58:22.667Z,2.88
2022-10-06T03:01:19.506Z,3.13
2022-10-06T03:04:40.404Z,3.03
2022-10-06T03:07:43.305Z,3.42
2022-10-06T03:10:30.734Z,2.80
2022-10-06T03:13:40.612Z,2.90
2022-10-06T03:16:43.017Z,3.97
2022-10-06T03:19:46.659Z,2.90
2022-10-06T03:22:44.870Z,3.10
2022-10-06T03:29:07.995Z,3.25
2022-10-06T03:32:01.246Z,2.80
2022-10-06T03:39:46.965Z,3.03
2022-10-06T03:43:25.851Z,3.33
2022-10-06T03:46:13.160Z,4.18
2022-10-06T03:49:11.922Z,3.15
2022-10-06T03:52:01.936Z,3.70
2022-10-06T03:54:55.660Z,3.40
2022-10-06T03:58:05.624Z,3.00
2022-10-06T04:04:44.846Z,3.13
2022-10-06T04:07:45.759Z,3.10
2022-10-06T04:10:47.581Z,3.50
2022-10-06T04:13:35.749Z,3.50
2022-10-06T04:16:34.905Z,3.33
2022-10-06T04:22:29.359Z,3.95
2022-10-06T04:25:19.049Z,3.85
2022-10-06T04:28:11.388Z,3.53
2022-10-06T04:31:08.346Z,4.68
2022-10-06T04:33:58.124Z,4.47
2022-10-06T04:36:45.391Z,3.97
2022-10-06T04:39:33.833Z,3.97
2022-10-06T04:42:20.842Z,4.82
2022-10-06T04:45:08.436Z,4.28
2022-10-06T04:47:55.529Z,4.45
2022-10-06T04:50:53.120Z,4.30
2022-10-06T04:53:40.613Z,4.18
2022-10-06T04:56:32.577Z,4.15
2022-10-06T05:00:05.312Z,3.85
2022-10-06T05:03:43.077Z,4.47
2022-10-06T05:06:30.309Z,4.90
2022-10-06T05:13:43.744Z,4.05
2022-10-06T05:16:33.477Z,4.18
2022-10-06T05:19:31.495Z,3.92
2022-10-06T05:22:25.411Z,4.95
2022-10-06T05:25:12.539Z,4.18
2022-10-06T05:28:00.090Z,4.85
2022-10-06T05:30:57.620Z,3.85
2022-10-06T05:33:45.037Z,4.53
2022-10-06T05:36:34.271Z,4.50
2022-10-06T05:39:23.438Z,4.28
2022-10-06T05:42:10.504Z,3.88
2022-10-06T05:44:59.836Z,3.85
2022-10-06T05:47:47.092Z,3.90
2022-10-06T05:50:35.677Z,3.85
2022-10-06T05:53:22.863Z,4.15
2022-10-06T05:56:15.009Z,3.70
2022-10-06T05:59:02.590Z,3.65
2022-10-06T06:01:49.731Z,3.88
2022-10-06T06:04:44.225Z,6.43
2022-10-06T06:07:31.283Z,6.80
2022-10-06T06:10:18.346Z,6.10
2022-10-06T06:13:05.418Z,6.60
2022-10-06T06:16:01.484Z,6.35
2022-10-06T06:18:48.554Z,4.78
2022-10-06T06:21:35.864Z,5.03
2022-10-06T06:24:22.923Z,4.15
2022-10-06T06:27:09.998Z,4.18
2022-10-06T06:29:59.555Z,3.80
2022-10-06T06:32:47.042Z,4.07
2022-10-06T06:35:36.590Z,3.88
2022-10-06T06:38:23.836Z,4.00
2022-10-06T06:41:19.506Z,4.18
2022-10-06T06:44:09.561Z,4.57
2022-10-06T06:46:56.769Z,3.75
2022-10-06T06:49:43.895Z,4.55
2022-10-06T06:52:32.852Z,4.55
2022-10-06T06:55:19.997Z,3.97
2022-10-06T06:58:11.486Z,4.65
2022-10-06T07:01:08.252Z,4.53
2022-10-06T07:03:59.381Z,4.93
2022-10-06T07:06:53.196Z,4.22
2022-10-06T07:09:40.941Z,4.70
2022-10-06T07:12:28.007Z,4.80
2022-10-06T07:15:44.361Z,4.43
2022-10-06T07:18:50.117Z,4.20
2022-10-06T07:21:56.212Z,3.97
2022-10-06T07:25:02.900Z,3.60
2022-10-06T07:27:53.320Z,3.72
2022-10-06T07:30:41.072Z,3.95
2022-10-06T07:33:29.190Z,3.50
2022-10-06T07:36:16.846Z,3.40
2022-10-06T07:39:04.083Z,3.60
2022-10-06T07:41:51.456Z,3.30
2022-10-06T07:44:39.678Z,3.30
2022-10-06T07:47:26.737Z,3.45
2022-10-06T07:50:14.136Z,4.13
2022-10-06T07:53:04.869Z,3.83
2022-10-06T07:55:54.113Z,3.97
2022-10-06T07:58:44.691Z,3.40
2022-10-06T08:01:34.728Z,3.40
2022-10-06T08:04:21.831Z,3.97
2022-10-06T08:07:10.609Z,4.25
2022-10-06T08:09:57.729Z,3.13
2022-10-06T08:12:44.883Z,3.92
2022-10-06T08:15:32.413Z,3.10
2022-10-06T08:18:44.313Z,2.88
2022-10-06T08:21:34.407Z,2.97
2022-10-06T08:24:21.705Z,2.50
2022-10-06T08:27:09.780Z,2.60
2022-10-06T08:29:57.515Z,2.50
2022-10-06T08:32:44.761Z,2.78
2022-10-06T08:35:36.302Z,2.78
2022-10-06T08:38:23.529Z,2.67
2022-10-06T08:41:28.079Z,2.90
2022-10-06T08:44:18.580Z,2.30
2022-10-06T08:47:14.466Z,1.90
2022-10-06T08:50:11.197Z,2.10
2022-10-06T08:53:23.342Z,1.65
2022-10-06T08:56:20.737Z,1.90
2022-10-06T08:59:10.135Z,1.67
2022-10-06T09:01:57.471Z,1.67
2022-10-06T09:04:44.684Z,2.08
2022-10-06T09:08:07.582Z,1.80
2022-10-06T09:11:22.118Z,2.00
2022-10-06T09:14:22.671Z,1.65
2022-10-06T09:17:15.218Z,1.30
2022-10-06T09:23:14.260Z,1.98
2022-10-06T09:26:02.887Z,1.27
2022-10-06T09:28:55.847Z,1.75
2022-10-06T09:31:50.532Z,1.30
2022-10-06T09:34:52.377Z,1.45
2022-10-06T09:37:54.947Z,1.52
2022-10-06T09:40:51.470Z,1.40
2022-10-06T09:43:39.729Z,1.40
2022-10-06T09:46:41.908Z,1.48
2022-10-06T09:49:31.631Z,1.33
2022-10-06T09:52:18.924Z,1.33
2022-10-06T09:55:18.601Z,1.15
2022-10-06T09:58:33.720Z,1.05
2022-10-06T10:01:24.827Z,1.30
2022-10-06T10:04:21.935Z,1.30
2022-10-06T10:07:26.217Z,1.63
2022-10-06T10:10:19.612Z,1.10
2022-10-06T10:13:42.178Z,1.15
2022-10-06T10:16:34.989Z,0.88
2022-10-06T10:19:33.265Z,0.90
2022-10-06T10:22:33.733Z,1.23
2022-10-06T10:25:50.514Z,0.82
2022-10-06T10:28:48.225Z,1.30
2022-10-06T10:31:56.977Z,1.30
2022-10-06T10:35:07.544Z,1.20
2022-10-06T10:38:27.375Z,1.05
2022-10-06T10:41:24.488Z,1.30
2022-10-06T10:44:23.996Z,1.80
2022-10-06T10:47:28.911Z,1.45
2022-10-06T10:50:43.441Z,1.67
2022-10-06T10:53:55.451Z,1.77
2022-10-06T10:56:53.375Z,1.43
2022-10-06T11:00:03.606Z,1.63
2022-10-06T11:02:54.969Z,1.58
2022-10-06T11:05:54.106Z,1.05
2022-10-06T11:09:07.765Z,1.20
2022-10-06T11:28:20.523Z,1.42
2022-10-06T11:31:26.465Z,1.10
2022-10-06T11:34:25.447Z,1.20
2022-10-06T11:37:50.431Z,1.50
2022-10-06T11:40:50.101Z,1.33
2022-10-06T11:43:45.256Z,1.17
2022-10-06T11:46:45.252Z,1.30
2022-10-06T11:49:33.346Z,1.30
2022-10-06T11:52:22.013Z,1.25
2022-10-06T11:55:16.896Z,1.25
2022-10-06T11:58:29.907Z,1.05
2022-10-06T12:01:31.989Z,1.30
2022-10-06T12:04:26.459Z,1.60
2022-10-06T12:07:53.458Z,1.30
2022-10-06T12:10:52.978Z,1.38
2022-10-06T12:17:20.494Z,1.63
2022-10-06T12:20:46.476Z,1.60
2022-10-06T12:23:45.829Z,1.30
2022-10-06T12:27:03.217Z,1.63
2022-10-06T12:30:01.387Z,1.40
2022-10-06T12:33:09.039Z,1.02
2022-10-06T12:36:05.147Z,1.45
2022-10-06T12:39:11.309Z,1.38
2022-10-06T12:42:07.125Z,1.20
2022-10-06T12:44:54.798Z,1.35
2022-10-06T12:47:47.225Z,1.15
2022-10-06T12:50:36.598Z,1.33
2022-10-06T12:53:38.519Z,1.70
2022-10-06T12:56:40.969Z,2.25
2022-10-06T12:59:40.639Z,1.42
2022-10-06T13:02:28.576Z,1.05
2022-10-06T13:05:16.089Z,1.33
2022-10-06T13:08:03.345Z,1.77
2022-10-06T13:11:21.720Z,1.15
2022-10-06T13:14:14.246Z,1.70
2022-10-06T13:19:53.778Z,1.92
2022-10-06T13:22:54.980Z,1.45
2022-10-06T13:25:53.851Z,1.42
2022-10-06T13:28:44.101Z,1.55
2022-10-06T13:31:57.165Z,1.63
2022-10-06T13:34:49.703Z,1.58
2022-10-06T13:40:44.679Z,2.00
2022-10-06T13:43:39.750Z,1.90
2022-10-06T13:46:38.205Z,1.77
2022-10-06T13:49:54.072Z,1.95
2022-10-06T13:52:52.090Z,1.50
2022-10-06T13:55:39.395Z,1.83
2022-10-06T13:58:54.482Z,2.00
2022-10-06T14:01:42.064Z,1.40
2022-10-06T14:04:34.521Z,1.80
2022-10-06T14:07:27.913Z,1.52
2022-10-06T14:10:28.077Z,1.52
2022-10-06T14:13:49.543Z,1.85
2022-10-06T14:16:39.175Z,1.60
2022-10-06T14:19:45.457Z,1.90
2022-10-06T14:22:35.858Z,1.50
2022-10-06T14:25:25.746Z,1.85
2022-10-06T14:28:18.554Z,1.73
2022-10-06T14:31:09.618Z,1.42
2022-10-06T14:34:00.168Z,1.70
2022-10-06T14:36:57.274Z,1.52
2022-10-06T14:39:46.268Z,1.63
2022-10-06T14:42:33.581Z,1.83
2022-10-06T14:45:27.181Z,1.33
2022-10-06T14:48:46.200Z,1.73
2022-10-06T14:51:37.077Z,1.77
2022-10-06T14:54:27.892Z,1.73
2022-10-06T14:57:19.764Z,1.48
2022-10-06T15:04:29.739Z,1.52
2022-10-06T15:13:59.404Z,1.70
2022-10-06T15:16:58.194Z,1.58
2022-10-06T15:19:47.733Z,2.17
2022-10-06T15:22:35.208Z,1.35
2022-10-06T15:25:41.416Z,1.52
2022-10-06T15:32:29.607Z,1.85
2022-10-06T15:35:24.943Z,1.98
2022-10-06T15:38:12.367Z,1.85
2022-10-06T15:41:08.232Z,1.77
2022-10-06T15:44:03.683Z,1.80
2022-10-06T15:47:29.315Z,1.83
2022-10-06T15:54:27.558Z,2.30
2022-10-06T15:57:58.894Z,1.70
2022-10-06T16:02:46.471Z,2.67
2022-10-06T16:44:06.827Z,2.10
2022-10-06T16:55:26.526Z,2.63
2022-10-06T17:00:00.284Z,2.88
2022-10-06T17:15:23.041Z,2.15
2022-10-06T17:23:19.073Z,2.35
2022-10-06T17:46:45.791Z,1.95
2022-10-06T17:49:48.601Z,2.03
2022-10-06T17:52:49.580Z,2.47
2022-10-06T21:06:42.495Z,3.63
2022-10-06T21:47:15.662Z,2.95
2022-10-06T21:55:05.205Z,4.38
2022-10-06T21:58:42.106Z,2.75
2022-10-06T22:01:57.848Z,2.78
2022-10-06T22:06:07.271Z,3.17
2022-10-06T22:13:09.889Z,3.10
2022-10-06T22:17:40.246Z,3.63
2022-10-06T23:06:19.899Z,2.58
